Columbia Township, OH

6:02 PM EDT on September 01, 2015 (GMT -0400)
Cincinnati-Northern KY International | | Change Station
CLOSE
Current Station
Airport
Location: Covington,
Elevation: 876 ft
Nearby Weather Stations

Elev 876 ft 39.04 °N, 84.67 °W | Updated 10 minutes ago

Partly Cloudy
Partly Cloudy
86 °F
Feels Like 87 °F
N
4
Wind Variable Wind from SW

Today
High -- | Low -- °F
--% Chance of Precip.
Yesterday
High -- | Low -- °F
Precip. -- in
7:05 AM 8:08 PM
Waning Gibbous, 86% visible
Pressure 30.06 in
Visibility 10.0 miles
Clouds Few 5000 ft
Mostly Cloudy 25000 ft
Heat Index 87 °F
Dew Point 64 °F
Humidity 48%
Rainfall 0.00 in
Snow Depth Not available.
UV 1 out of 12
Pollen 10.60 out of 12
Air Quality Not available.
Flu Activity Not available.
METAR KCVG 012152Z 22003KT 10SM FEW050 BKN250 30/18 A3009 RMK AO2 SLP178 T03000178
Pressure 30.06 in
Visibility 10.0 miles
Clouds Few 5000 ft
Mostly Cloudy 25000 ft
Heat Index 87 °F
Dew Point 64 °F
Humidity 48%
Rainfall 0.00 in
Snow Depth Not available.
UV 1 out of 12
Pollen 10.60 out of 12
Air Quality Not available.
Flu Activity Not available.
METAR KCVG 012152Z 22003KT 10SM FEW050 BKN250 30/18 A3009 RMK AO2 SLP178 T03000178

10-Day Weather Forecast

×

Almanac

Astronomy

Sep. 01, 2015 Rise Set
Actual Time
Civil Twilight
Nautical Twilight
Astronomical Twilight
Moon
Length of Visible Light
Length of Day
Tomorrow will be .
, % of the Moon is Illuminated

Today's Extremes

State Highs State Lows

Community

WunderPhotos

Upload Photos

1,851,629 photos uploaded!

WunderBlogs® & News

Nearby

Air Quality

  Air Quality AQ Index Pollutant
Not available.

Snow Depth

Station Depth Elevation

Earthquake Activity

City Distance Mag. Time & Date
Minimum magnitude displayed is 2.5.

Coastal Water Temperatures

Place Temperature

Stations

Nearby Weather Stations

Station Location Temp. Windchill Dew Point Humidity Wind Precip. Elev Updated Type